createdAt,value
2022-08-03T00:00:24.940Z,97793.44
2022-08-03T00:04:34.110Z,97797.53
2022-08-03T00:08:40.379Z,97796.09
2022-08-03T00:12:43.761Z,97788.19
2022-08-03T00:16:47.411Z,97792.09
2022-08-03T00:20:52.051Z,97796.19
2022-08-03T00:24:55.041Z,97794.97
2022-08-03T00:28:58.605Z,97798.25
2022-08-03T00:33:01.916Z,97801.53
2022-08-03T00:37:06.966Z,97798.50
2022-08-03T00:41:12.889Z,97806.25
2022-08-03T00:45:20.445Z,97806.47
2022-08-03T00:49:23.578Z,97805.47
2022-08-03T00:53:29.631Z,97806.91
2022-08-03T00:57:34.069Z,97806.13
2022-08-03T01:01:37.931Z,97811.66
2022-08-03T01:05:48.748Z,97809.22
2022-08-03T01:10:04.729Z,97811.06
2022-08-03T01:14:19.170Z,97806.63
2022-08-03T01:18:30.849Z,97802.75
2022-08-03T01:23:04.677Z,97811.06
2022-08-03T01:27:14.297Z,97807.03
2022-08-03T01:31:26.213Z,97802.97
2022-08-03T01:35:38.355Z,97811.72
2022-08-03T01:39:44.717Z,97800.97
2022-08-03T01:44:28.359Z,97802.56
2022-08-03T01:48:19.157Z,97798.91
2022-08-03T01:52:22.917Z,97794.84
2022-08-03T01:56:28.131Z,97796.09
2022-08-03T02:00:33.076Z,97794.44
2022-08-03T02:04:40.486Z,97793.88
2022-08-03T02:08:46.348Z,97777.63
2022-08-03T02:12:51.437Z,97788.38
2022-08-03T02:16:56.598Z,97781.50
2022-08-03T02:21:05.492Z,97779.06
2022-08-03T02:25:16.421Z,97775.59
2022-08-03T02:29:38.809Z,97784.53
2022-08-03T02:33:47.278Z,97783.13
2022-08-03T02:38:00.071Z,97788.81
2022-08-03T02:42:03.765Z,97783.13
2022-08-03T02:46:09.955Z,97787.19
2022-08-03T02:50:16.738Z,97780.50
2022-08-03T02:54:23.701Z,97782.34
2022-08-03T02:58:27.609Z,97788.41
2022-08-03T03:02:32.162Z,97781.56
2022-08-03T03:06:37.567Z,97790.47
2022-08-03T03:10:45.628Z,97787.03
2022-08-03T03:14:49.248Z,97790.50
2022-08-03T03:18:52.951Z,97782.38
2022-08-03T03:22:57.999Z,97785.44
2022-08-03T03:27:06.413Z,97779.50
2022-08-03T03:31:11.037Z,97788.44
2022-08-03T03:35:17.228Z,97787.81
2022-08-03T03:39:20.809Z,97792.47
2022-08-03T03:43:26.140Z,97796.53
2022-08-03T03:47:32.342Z,97795.50
2022-08-03T03:51:36.872Z,97799.38
2022-08-03T03:55:59.275Z,97790.84
2022-08-03T04:00:07.155Z,97801.38
2022-08-03T04:04:24.052Z,97801.38
2022-08-03T04:08:44.794Z,97802.59
2022-08-03T04:12:55.021Z,97817.03
2022-08-03T04:17:02.721Z,97818.44
2022-08-03T04:21:11.842Z,97817.47
2022-08-03T04:25:20.036Z,97819.72
2022-08-03T04:29:25.709Z,97822.13
2022-08-03T04:33:35.016Z,97822.94
2022-08-03T04:37:41.697Z,97824.97
2022-08-03T04:42:07.311Z,97837.16
2022-08-03T04:46:10.927Z,97837.53
2022-08-03T04:50:21.231Z,97842.38
2022-08-03T04:54:24.933Z,97839.31
2022-08-03T04:58:28.968Z,97839.13
2022-08-03T05:02:34.292Z,97839.91
2022-08-03T05:06:47.921Z,97844.78
2022-08-03T05:10:52.180Z,97844.78
2022-08-03T05:14:56.541Z,97835.78
2022-08-03T05:18:59.530Z,97838.00
2022-08-03T05:23:04.702Z,97839.00
2022-08-03T05:27:08.264Z,97837.97
2022-08-03T05:31:12.279Z,97837.72
2022-08-03T05:36:00.903Z,97849.06
2022-08-03T05:39:40.896Z,97843.75
2022-08-03T05:43:44.685Z,97845.31
2022-08-03T05:47:48.214Z,97841.44
2022-08-03T05:52:00.013Z,97848.31
2022-08-03T05:56:14.466Z,97844.19
2022-08-03T06:00:20.207Z,97843.72
2022-08-03T06:04:24.970Z,97844.25
2022-08-03T06:08:28.725Z,97835.63
2022-08-03T06:12:36.111Z,97836.34
2022-08-03T06:16:39.664Z,97828.28
2022-08-03T06:20:43.143Z,97836.94
2022-08-03T06:24:53.471Z,97834.75
2022-08-03T06:28:58.638Z,97835.81
2022-08-03T06:33:02.771Z,97843.31
2022-08-03T06:37:06.235Z,97846.34
2022-08-03T06:41:09.730Z,97847.06
2022-08-03T06:45:14.752Z,97844.75
2022-08-03T06:49:18.441Z,97841.28
2022-08-03T06:53:21.671Z,97844.59
2022-08-03T06:57:25.420Z,97845.50
2022-08-03T07:01:29.812Z,97844.13
2022-08-03T07:05:35.768Z,97848.19
2022-08-03T07:09:38.811Z,97853.97
2022-08-03T07:13:45.208Z,97851.00
2022-08-03T07:17:49.692Z,97849.69
2022-08-03T07:21:53.664Z,97846.06
2022-08-03T07:25:56.927Z,97843.59
2022-08-03T07:30:01.415Z,97839.09
2022-08-03T07:34:09.629Z,97840.38
2022-08-03T07:38:12.706Z,97834.09
2022-08-03T07:42:16.317Z,97837.69
2022-08-03T07:46:19.533Z,97831.56
2022-08-03T07:50:25.100Z,97829.63
2022-08-03T07:54:28.785Z,97825.53
2022-08-03T07:58:32.269Z,97831.31
2022-08-03T08:02:35.413Z,97823.53
2022-08-03T08:06:40.290Z,97827.53
2022-08-03T08:10:58.246Z,97821.09
2022-08-03T08:15:02.634Z,97816.78
2022-08-03T08:19:05.631Z,97819.81
2022-08-03T08:23:41.545Z,97816.16
2022-08-03T08:28:31.930Z,97821.13
2022-08-03T08:31:58.420Z,97819.94
2022-08-03T08:36:02.183Z,97811.63
2022-08-03T08:40:09.942Z,97823.13
2022-08-03T08:44:13.084Z,97814.69
2022-08-03T08:48:20.143Z,97814.72
2022-08-03T08:52:31.814Z,97811.88
2022-08-03T08:56:37.590Z,97815.56
2022-08-03T09:00:40.753Z,97814.25
2022-08-03T09:04:45.984Z,97803.03
2022-08-03T09:08:49.559Z,97801.94
2022-08-03T09:12:54.641Z,97798.19
2022-08-03T09:17:01.618Z,97790.19
2022-08-03T09:21:30.649Z,97791.16
2022-08-03T09:25:36.608Z,97783.41
2022-08-03T09:29:43.770Z,97787.59
2022-08-03T09:33:50.651Z,97776.78
2022-08-03T09:38:13.556Z,97789.00
2022-08-03T09:42:23.717Z,97782.94
2022-08-03T09:46:32.217Z,97791.84
2022-08-03T09:50:57.106Z,97786.75
2022-08-03T09:56:32.688Z,97778.97
2022-08-03T09:59:41.177Z,97774.31
2022-08-03T10:04:04.390Z,97774.78
2022-08-03T10:08:16.812Z,97773.94
2022-08-03T10:12:20.090Z,97765.53
2022-08-03T10:16:25.494Z,97757.66
2022-08-03T10:20:31.083Z,97753.75
2022-08-03T10:24:37.906Z,97749.06
2022-08-03T10:28:45.286Z,97747.91
2022-08-03T10:32:58.362Z,97753.66
2022-08-03T10:37:11.449Z,97742.78
2022-08-03T10:41:15.601Z,97736.44
2022-08-03T10:45:27.256Z,97733.19
2022-08-03T10:49:34.731Z,97731.63
2022-08-03T10:53:44.140Z,97726.47
2022-08-03T10:57:59.260Z,97715.72
2022-08-03T11:02:02.599Z,97718.25
2022-08-03T11:06:19.151Z,97718.19
2022-08-03T11:10:33.384Z,97712.69
2022-08-03T11:14:48.775Z,97711.22
2022-08-03T11:19:00.495Z,97711.69
2022-08-03T11:23:03.853Z,97717.09
2022-08-03T11:27:25.788Z,97714.50
2022-08-03T11:31:51.936Z,97699.69
2022-08-03T11:36:02.580Z,97707.09
2022-08-03T11:40:08.128Z,97694.22
2022-08-03T11:44:41.733Z,97697.88
2022-08-03T11:48:52.728Z,97692.00
2022-08-03T11:52:56.490Z,97692.25
2022-08-03T11:57:00.252Z,97694.53
2022-08-03T12:01:19.998Z,97694.31
2022-08-03T12:05:51.193Z,97688.63
2022-08-03T12:10:11.345Z,97682.16
2022-08-03T12:14:48.889Z,97680.69
2022-08-03T12:18:43.809Z,97681.63
2022-08-03T12:22:47.342Z,97681.47
2022-08-03T12:26:59.555Z,97675.13
2022-08-03T12:31:06.898Z,97663.91
2022-08-03T12:35:12.494Z,97661.41
2022-08-03T12:39:15.992Z,97673.22
2022-08-03T12:43:20.054Z,97660.28
2022-08-03T12:47:23.480Z,97658.91
2022-08-03T12:51:28.865Z,97653.97
2022-08-03T12:55:57.229Z,97644.19
2022-08-03T13:00:21.228Z,97642.81
2022-08-03T13:04:35.336Z,97636.78
2022-08-03T13:08:39.955Z,97636.78
2022-08-03T13:12:50.075Z,97637.03
2022-08-03T13:16:54.021Z,97631.16
2022-08-03T13:20:57.503Z,97633.94
2022-08-03T13:25:03.651Z,97627.59
2022-08-03T13:29:07.914Z,97630.53
2022-08-03T13:33:11.393Z,97624.88
2022-08-03T13:37:15.223Z,97623.28
2022-08-03T13:41:20.105Z,97628.38
2022-08-03T13:45:34.246Z,97614.97
2022-08-03T13:49:37.863Z,97607.91
2022-08-03T13:53:41.388Z,97609.47
2022-08-03T13:58:02.973Z,97604.84
2022-08-03T14:02:10.273Z,97603.22
2022-08-03T14:06:13.629Z,97592.66
2022-08-03T14:10:18.158Z,97591.28
2022-08-03T14:14:23.509Z,97586.31
2022-08-03T14:18:33.869Z,97587.19
2022-08-03T14:22:37.911Z,97587.19
2022-08-03T14:26:41.085Z,97584.34
2022-08-03T14:30:46.058Z,97582.19
2022-08-03T14:34:49.480Z,97588.09
2022-08-03T14:38:53.162Z,97586.19
2022-08-03T14:42:59.039Z,97583.94
2022-08-03T14:47:03.632Z,97577.25
2022-08-03T14:51:07.690Z,97578.13
2022-08-03T14:55:12.085Z,97576.78
2022-08-03T14:59:15.595Z,97575.59
2022-08-03T15:03:23.733Z,97569.34
2022-08-03T15:07:27.195Z,97570.59
2022-08-03T15:11:30.163Z,97568.06
2022-08-03T15:15:33.749Z,97565.13
2022-08-03T15:20:01.028Z,97559.94
2022-08-03T15:24:01.856Z,97561.31
2022-08-03T15:28:05.777Z,97556.34
2022-08-03T15:32:09.786Z,97557.47
2022-08-03T15:36:14.816Z,97550.91
2022-08-03T15:40:17.957Z,97554.44
2022-08-03T15:44:21.769Z,97550.56
2022-08-03T15:48:26.536Z,97552.28
2022-08-03T15:52:31.965Z,97546.56
2022-08-03T15:56:35.129Z,97550.19
2022-08-03T16:00:39.033Z,97545.19
2022-08-03T16:04:42.733Z,97544.06
2022-08-03T16:08:49.093Z,97541.28
2022-08-03T16:12:52.940Z,97536.94
2022-08-03T16:16:56.046Z,97535.31
2022-08-03T16:20:59.487Z,97535.28
2022-08-03T16:25:04.421Z,97523.19
2022-08-03T16:29:22.629Z,97528.28
2022-08-03T16:33:27.376Z,97530.91
2022-08-03T16:37:39.336Z,97522.56
2022-08-03T16:41:54.243Z,97521.09
2022-08-03T16:46:06.269Z,97530.47
2022-08-03T16:50:17.252Z,97520.22
2022-08-03T16:54:23.116Z,97526.25
2022-08-03T16:58:41.646Z,97526.63
2022-08-03T17:02:49.076Z,97523.03
2022-08-03T17:06:52.358Z,97520.03
2022-08-03T17:10:56.605Z,97526.38
2022-08-03T17:15:01.425Z,97527.59
2022-08-03T17:19:08.009Z,97536.59
2022-08-03T17:23:34.695Z,97537.72
2022-08-03T17:28:49.199Z,97535.94
2022-08-03T17:32:09.766Z,97540.97
2022-08-03T17:36:20.550Z,97537.88
2022-08-03T17:49:24.799Z,97551.63
2022-08-03T17:53:30.823Z,97546.53
2022-08-03T17:58:02.195Z,97546.16
2022-08-03T18:02:30.809Z,97547.56
2022-08-03T18:06:55.571Z,97549.63
2022-08-03T18:11:09.651Z,97555.44
2022-08-03T18:15:25.564Z,97550.38
2022-08-03T18:20:01.034Z,97557.66
2022-08-03T18:23:56.679Z,97556.56
2022-08-03T18:28:06.428Z,97562.97
2022-08-03T18:32:16.999Z,97569.34
2022-08-03T18:36:29.981Z,97567.13
2022-08-03T18:40:35.439Z,97564.59
2022-08-03T18:44:52.984Z,97570.63
2022-08-03T18:49:08.290Z,97574.50
2022-08-03T18:53:19.563Z,97570.56
2022-08-03T18:57:41.859Z,97578.13
2022-08-03T19:01:58.200Z,97575.78
2022-08-03T19:06:13.362Z,97584.34
2022-08-03T19:10:20.741Z,97584.38
2022-08-03T19:14:35.902Z,97591.31
2022-08-03T19:18:49.701Z,97593.13
2022-08-03T19:22:53.961Z,97598.16
2022-08-03T19:26:57.795Z,97604.22
2022-08-03T19:31:06.245Z,97599.06
2022-08-03T19:35:18.817Z,97606.19
2022-08-03T19:39:22.212Z,97601.88
2022-08-03T19:43:33.126Z,97604.16
2022-08-03T19:47:59.989Z,97609.41
2022-08-03T19:52:04.853Z,97609.84
2022-08-03T19:56:08.303Z,97617.78
2022-08-03T20:00:13.914Z,97613.41
2022-08-03T20:04:20.991Z,97613.84
2022-08-03T20:08:24.537Z,97611.91
2022-08-03T20:12:29.195Z,97614.19
2022-08-03T20:16:32.762Z,97611.44
2022-08-03T20:20:39.263Z,97616.16
2022-08-03T20:24:50.750Z,97622.22
2022-08-03T20:28:59.417Z,97618.38
2022-08-03T20:33:18.779Z,97615.31
2022-08-03T20:37:23.791Z,97608.88
2022-08-03T20:41:27.571Z,97610.69
2022-08-03T20:45:58.388Z,97609.34
2022-08-03T20:49:54.819Z,97610.88
2022-08-03T20:54:03.043Z,97607.66
2022-08-03T20:58:08.582Z,97606.56
2022-08-03T21:02:13.344Z,97600.09
2022-08-03T21:06:27.925Z,97597.38
2022-08-03T21:10:37.933Z,97599.19
2022-08-03T21:14:51.915Z,97601.47
2022-08-03T21:18:59.876Z,97604.00
2022-08-03T21:23:03.872Z,97597.50
2022-08-03T21:27:09.212Z,97603.22
2022-08-03T21:31:13.369Z,97603.63
2022-08-03T21:35:18.609Z,97607.50
2022-08-03T21:39:21.727Z,97611.41
2022-08-03T21:43:27.046Z,97608.41
2022-08-03T21:47:30.662Z,97600.13
2022-08-03T21:51:36.662Z,97599.06
2022-08-03T21:55:41.576Z,97605.94
2022-08-03T21:59:53.111Z,97592.06
2022-08-03T22:03:58.518Z,97601.25
2022-08-03T22:08:02.213Z,97608.81
2022-08-03T22:12:06.911Z,97602.03
2022-08-03T22:16:13.312Z,97601.13
2022-08-03T22:20:16.670Z,97606.38
2022-08-03T22:24:23.943Z,97602.84
2022-08-03T22:28:31.703Z,97605.16
2022-08-03T22:32:38.392Z,97608.78
2022-08-03T22:36:43.018Z,97610.53
2022-08-03T22:40:49.452Z,97612.31
2022-08-03T22:44:55.413Z,97607.94
2022-08-03T22:49:01.541Z,97601.97
2022-08-03T22:53:05.410Z,97600.84
2022-08-03T22:57:09.323Z,97607.09
2022-08-03T23:01:14.665Z,97597.41
2022-08-03T23:06:00.839Z,97608.75
2022-08-03T23:09:50.826Z,97610.47
2022-08-03T23:13:55.186Z,97608.75
2022-08-03T23:17:59.414Z,97608.91
2022-08-03T23:22:05.727Z,97611.22
2022-08-03T23:26:09.545Z,97612.41
2022-08-03T23:30:15.410Z,97615.78
2022-08-03T23:34:38.780Z,97603.66
2022-08-03T23:38:44.657Z,97596.88
2022-08-03T23:42:50.525Z,97593.78
2022-08-03T23:46:54.287Z,97599.22
2022-08-03T23:51:01.641Z,97590.34
2022-08-03T23:55:22.216Z,97605.78
2022-08-03T23:59:33.332Z,97593.69
